sensor_id;sensor_type;location;lat;lon;timestamp;P1;durP1;ratioP1;P2;durP2;ratioP2
76939;SDS011;65885;55.848;35.916;2023-01-04T00:02:25;0.95;;;0.90;;
76939;SDS011;65885;55.848;35.916;2023-01-04T00:04:52;1.00;;;0.60;;
76939;SDS011;65885;55.848;35.916;2023-01-04T00:07:19;0.82;;;0.82;;
76939;SDS011;65885;55.848;35.916;2023-01-04T00:09:47;0.52;;;0.43;;
76939;SDS011;65885;55.848;35.916;2023-01-04T00:12:14;1.10;;;1.00;;
76939;SDS011;65885;55.848;35.916;2023-01-04T00:14:42;1.50;;;1.40;;
76939;SDS011;65885;55.848;35.916;2023-01-04T00:17:10;1.45;;;1.35;;
76939;SDS011;65885;55.848;35.916;2023-01-04T00:19:38;1.10;;;1.00;;
76939;SDS011;65885;55.848;35.916;2023-01-04T00:22:05;1.58;;;0.73;;
76939;SDS011;65885;55.848;35.916;2023-01-04T00:24:32;1.25;;;0.93;;
76939;SDS011;65885;55.848;35.916;2023-01-04T00:27:00;1.88;;;1.70;;
76939;SDS011;65885;55.848;35.916;2023-01-04T00:29:27;2.20;;;1.58;;
76939;SDS011;65885;55.848;35.916;2023-01-04T00:31:55;1.40;;;1.30;;
76939;SDS011;65885;55.848;35.916;2023-01-04T00:34:24;1.17;;;1.08;;
76939;SDS011;65885;55.848;35.916;2023-01-04T00:36:51;1.27;;;1.17;;
76939;SDS011;65885;55.848;35.916;2023-01-04T00:39:19;1.73;;;1.48;;
76939;SDS011;65885;55.848;35.916;2023-01-04T00:41:47;1.55;;;1.38;;
76939;SDS011;65885;55.848;35.916;2023-01-04T00:44:15;3.05;;;2.25;;
76939;SDS011;65885;55.848;35.916;2023-01-04T00:46:45;3.63;;;2.05;;
76939;SDS011;65885;55.848;35.916;2023-01-04T00:49:13;2.22;;;1.55;;
76939;SDS011;65885;55.848;35.916;2023-01-04T00:51:42;1.92;;;0.90;;
76939;SDS011;65885;55.848;35.916;2023-01-04T00:54:11;3.00;;;1.58;;
76939;SDS011;65885;55.848;35.916;2023-01-04T00:56:39;1.95;;;1.50;;
76939;SDS011;65885;55.848;35.916;2023-01-04T00:59:07;2.90;;;1.95;;
76939;SDS011;65885;55.848;35.916;2023-01-04T01:01:35;1.98;;;1.35;;
76939;SDS011;65885;55.848;35.916;2023-01-04T01:04:03;1.50;;;1.40;;
76939;SDS011;65885;55.848;35.916;2023-01-04T01:06:31;1.33;;;1.23;;
76939;SDS011;65885;55.848;35.916;2023-01-04T01:09:01;2.83;;;1.90;;
76939;SDS011;65885;55.848;35.916;2023-01-04T01:11:30;3.72;;;2.08;;
76939;SDS011;65885;55.848;35.916;2023-01-04T01:13:57;3.13;;;2.28;;
76939;SDS011;65885;55.848;35.916;2023-01-04T01:16:28;3.75;;;1.75;;
76939;SDS011;65885;55.848;35.916;2023-01-04T01:18:55;3.92;;;2.05;;
76939;SDS011;65885;55.848;35.916;2023-01-04T01:21:23;3.60;;;1.27;;
76939;SDS011;65885;55.848;35.916;2023-01-04T01:23:53;3.00;;;1.85;;
76939;SDS011;65885;55.848;35.916;2023-01-04T01:26:23;4.82;;;2.40;;
76939;SDS011;65885;55.848;35.916;2023-01-04T01:28:53;2.28;;;1.67;;
76939;SDS011;65885;55.848;35.916;2023-01-04T01:31:21;3.00;;;2.40;;
76939;SDS011;65885;55.848;35.916;2023-01-04T01:33:51;3.63;;;1.83;;
76939;SDS011;65885;55.848;35.916;2023-01-04T01:36:21;2.70;;;1.88;;
76939;SDS011;65885;55.848;35.916;2023-01-04T01:38:50;2.88;;;2.55;;
76939;SDS011;65885;55.848;35.916;2023-01-04T01:41:18;2.80;;;2.00;;
76939;SDS011;65885;55.848;35.916;2023-01-04T01:43:49;2.72;;;1.85;;
76939;SDS011;65885;55.848;35.916;2023-01-04T01:46:20;3.40;;;2.15;;
76939;SDS011;65885;55.848;35.916;2023-01-04T01:48:53;4.22;;;3.45;;
76939;SDS011;65885;55.848;35.916;2023-01-04T01:51:24;2.72;;;1.70;;
76939;SDS011;65885;55.848;35.916;2023-01-04T01:53:55;3.88;;;3.17;;
76939;SDS011;65885;55.848;35.916;2023-01-04T01:56:27;3.45;;;2.92;;
76939;SDS011;65885;55.848;35.916;2023-01-04T01:58:58;2.85;;;2.55;;
76939;SDS011;65885;55.848;35.916;2023-01-04T02:01:26;4.93;;;2.35;;
76939;SDS011;65885;55.848;35.916;2023-01-04T02:03:54;3.83;;;2.00;;
76939;SDS011;65885;55.848;35.916;2023-01-04T02:06:24;2.65;;;2.08;;
76939;SDS011;65885;55.848;35.916;2023-01-04T02:08:55;3.67;;;3.05;;
76939;SDS011;65885;55.848;35.916;2023-01-04T02:11:23;3.45;;;2.08;;
76939;SDS011;65885;55.848;35.916;2023-01-04T02:13:50;3.97;;;2.40;;
76939;SDS011;65885;55.848;35.916;2023-01-04T02:16:42;3.65;;;2.65;;
76939;SDS011;65885;55.848;35.916;2023-01-04T02:19:26;2.83;;;2.53;;
76939;SDS011;65885;55.848;35.916;2023-01-04T02:25:09;3.00;;;2.20;;
76939;SDS011;65885;55.848;35.916;2023-01-04T02:27:54;4.15;;;2.17;;
76939;SDS011;65885;55.848;35.916;2023-01-04T02:33:25;4.07;;;2.03;;
76939;SDS011;65885;55.848;35.916;2023-01-04T02:36:06;3.00;;;2.10;;
76939;SDS011;65885;55.848;35.916;2023-01-04T02:38:46;4.10;;;2.85;;
76939;SDS011;65885;55.848;35.916;2023-01-04T02:41:24;4.10;;;2.15;;
76939;SDS011;65885;55.848;35.916;2023-01-04T02:44:00;2.53;;;1.90;;
76939;SDS011;65885;55.848;35.916;2023-01-04T02:46:54;3.83;;;2.90;;
76939;SDS011;65885;55.848;35.916;2023-01-04T02:49:26;3.20;;;2.70;;
76939;SDS011;65885;55.848;35.916;2023-01-04T02:52:10;3.72;;;2.20;;
76939;SDS011;65885;55.848;35.916;2023-01-04T02:54:39;2.70;;;2.17;;
76939;SDS011;65885;55.848;35.916;2023-01-04T02:57:13;4.38;;;2.10;;
76939;SDS011;65885;55.848;35.916;2023-01-04T03:00:03;4.28;;;3.03;;
76939;SDS011;65885;55.848;35.916;2023-01-04T03:06:01;4.50;;;2.95;;
76939;SDS011;65885;55.848;35.916;2023-01-04T03:08:45;4.63;;;2.47;;
76939;SDS011;65885;55.848;35.916;2023-01-04T03:11:18;3.30;;;1.95;;
76939;SDS011;65885;55.848;35.916;2023-01-04T03:14:04;3.95;;;2.47;;
76939;SDS011;65885;55.848;35.916;2023-01-04T03:16:36;2.88;;;2.03;;
76939;SDS011;65885;55.848;35.916;2023-01-04T03:19:09;3.08;;;2.60;;
76939;SDS011;65885;55.848;35.916;2023-01-04T03:21:40;2.65;;;2.28;;
76939;SDS011;65885;55.848;35.916;2023-01-04T03:24:10;3.67;;;2.88;;
76939;SDS011;65885;55.848;35.916;2023-01-04T03:26:57;2.78;;;2.40;;
76939;SDS011;65885;55.848;35.916;2023-01-04T03:29:49;2.70;;;2.15;;
76939;SDS011;65885;55.848;35.916;2023-01-04T03:32:39;2.67;;;1.27;;
76939;SDS011;65885;55.848;35.916;2023-01-04T03:35:31;3.05;;;1.70;;
76939;SDS011;65885;55.848;35.916;2023-01-04T03:40:54;4.57;;;2.10;;
76939;SDS011;65885;55.848;35.916;2023-01-04T03:43:43;3.00;;;1.88;;
76939;SDS011;65885;55.848;35.916;2023-01-04T03:46:35;4.30;;;2.10;;
76939;SDS011;65885;55.848;35.916;2023-01-04T03:49:26;3.22;;;1.60;;
76939;SDS011;65885;55.848;35.916;2023-01-04T03:52:01;1.77;;;1.67;;
76939;SDS011;65885;55.848;35.916;2023-01-04T03:54:31;2.15;;;1.88;;
76939;SDS011;65885;55.848;35.916;2023-01-04T03:57:02;2.67;;;1.67;;
76939;SDS011;65885;55.848;35.916;2023-01-04T03:59:30;1.70;;;1.45;;
76939;SDS011;65885;55.848;35.916;2023-01-04T04:02:02;1.98;;;1.75;;
76939;SDS011;65885;55.848;35.916;2023-01-04T04:04:32;3.22;;;1.30;;
76939;SDS011;65885;55.848;35.916;2023-01-04T04:07:18;2.35;;;1.42;;
76939;SDS011;65885;55.848;35.916;2023-01-04T04:10:03;1.55;;;1.45;;
76939;SDS011;65885;55.848;35.916;2023-01-04T04:12:31;2.00;;;0.90;;
76939;SDS011;65885;55.848;35.916;2023-01-04T04:14:58;1.35;;;1.25;;
76939;SDS011;65885;55.848;35.916;2023-01-04T04:17:26;1.88;;;1.63;;
76939;SDS011;65885;55.848;35.916;2023-01-04T04:19:53;2.35;;;1.00;;
76939;SDS011;65885;55.848;35.916;2023-01-04T04:22:22;1.83;;;1.40;;
76939;SDS011;65885;55.848;35.916;2023-01-04T04:24:49;1.67;;;1.58;;
76939;SDS011;65885;55.848;35.916;2023-01-04T04:27:17;2.80;;;2.05;;
76939;SDS011;65885;55.848;35.916;2023-01-04T04:29:44;1.20;;;1.00;;
76939;SDS011;65885;55.848;35.916;2023-01-04T04:32:11;2.10;;;1.27;;
76939;SDS011;65885;55.848;35.916;2023-01-04T04:34:39;2.17;;;1.40;;
76939;SDS011;65885;55.848;35.916;2023-01-04T04:37:06;1.20;;;1.10;;
76939;SDS011;65885;55.848;35.916;2023-01-04T04:39:35;1.65;;;1.08;;
76939;SDS011;65885;55.848;35.916;2023-01-04T04:42:02;3.13;;;1.83;;
76939;SDS011;65885;55.848;35.916;2023-01-04T04:44:29;1.40;;;1.20;;
76939;SDS011;65885;55.848;35.916;2023-01-04T04:46:56;2.45;;;2.00;;
76939;SDS011;65885;55.848;35.916;2023-01-04T04:49:24;2.58;;;1.48;;
76939;SDS011;65885;55.848;35.916;2023-01-04T04:51:51;2.25;;;1.52;;
76939;SDS011;65885;55.848;35.916;2023-01-04T04:54:19;2.10;;;1.90;;
76939;SDS011;65885;55.848;35.916;2023-01-04T04:56:48;3.88;;;1.15;;
76939;SDS011;65885;55.848;35.916;2023-01-04T04:59:16;2.38;;;1.38;;
76939;SDS011;65885;55.848;35.916;2023-01-04T05:01:43;3.58;;;1.75;;
76939;SDS011;65885;55.848;35.916;2023-01-04T05:04:11;2.40;;;1.85;;
76939;SDS011;65885;55.848;35.916;2023-01-04T05:06:43;2.05;;;1.60;;
76939;SDS011;65885;55.848;35.916;2023-01-04T05:09:12;1.77;;;1.17;;
76939;SDS011;65885;55.848;35.916;2023-01-04T05:11:40;1.75;;;1.58;;
76939;SDS011;65885;55.848;35.916;2023-01-04T05:14:26;1.83;;;1.10;;
76939;SDS011;65885;55.848;35.916;2023-01-04T05:16:54;1.40;;;1.30;;
76939;SDS011;65885;55.848;35.916;2023-01-04T05:19:22;1.70;;;1.60;;
76939;SDS011;65885;55.848;35.916;2023-01-04T05:21:49;2.28;;;1.30;;
76939;SDS011;65885;55.848;35.916;2023-01-04T05:24:16;1.92;;;1.70;;
76939;SDS011;65885;55.848;35.916;2023-01-04T05:26:44;0.90;;;0.65;;
76939;SDS011;65885;55.848;35.916;2023-01-04T05:29:11;1.77;;;1.25;;
76939;SDS011;65885;55.848;35.916;2023-01-04T05:32:00;2.35;;;1.83;;
76939;SDS011;65885;55.848;35.916;2023-01-04T05:34:26;2.78;;;1.40;;
76939;SDS011;65885;55.848;35.916;2023-01-04T05:36:54;1.27;;;0.93;;
76939;SDS011;65885;55.848;35.916;2023-01-04T05:39:23;2.10;;;1.15;;
76939;SDS011;65885;55.848;35.916;2023-01-04T05:41:51;2.20;;;1.80;;
76939;SDS011;65885;55.848;35.916;2023-01-04T05:44:36;3.03;;;1.45;;
76939;SDS011;65885;55.848;35.916;2023-01-04T05:47:05;1.98;;;1.60;;
76939;SDS011;65885;55.848;35.916;2023-01-04T05:49:32;3.10;;;1.65;;
76939;SDS011;65885;55.848;35.916;2023-01-04T05:51:59;2.97;;;1.60;;
76939;SDS011;65885;55.848;35.916;2023-01-04T05:54:27;6.60;;;2.92;;
76939;SDS011;65885;55.848;35.916;2023-01-04T05:56:54;4.90;;;2.35;;
76939;SDS011;65885;55.848;35.916;2023-01-04T05:59:21;7.10;;;3.47;;
76939;SDS011;65885;55.848;35.916;2023-01-04T06:01:49;3.20;;;2.35;;
76939;SDS011;65885;55.848;35.916;2023-01-04T06:04:18;6.50;;;3.08;;
76939;SDS011;65885;55.848;35.916;2023-01-04T06:06:45;3.83;;;3.00;;
76939;SDS011;65885;55.848;35.916;2023-01-04T06:09:13;5.75;;;3.75;;
76939;SDS011;65885;55.848;35.916;2023-01-04T06:11:40;6.38;;;2.75;;
76939;SDS011;65885;55.848;35.916;2023-01-04T06:14:08;7.60;;;3.17;;
76939;SDS011;65885;55.848;35.916;2023-01-04T06:16:35;5.43;;;3.05;;
76939;SDS011;65885;55.848;35.916;2023-01-04T06:19:03;6.78;;;3.28;;
76939;SDS011;65885;55.848;35.916;2023-01-04T06:21:32;7.07;;;3.95;;
76939;SDS011;65885;55.848;35.916;2023-01-04T06:23:59;6.63;;;3.33;;
76939;SDS011;65885;55.848;35.916;2023-01-04T06:26:26;5.15;;;3.67;;
76939;SDS011;65885;55.848;35.916;2023-01-04T06:28:54;5.60;;;3.40;;
76939;SDS011;65885;55.848;35.916;2023-01-04T06:31:21;6.90;;;3.58;;
76939;SDS011;65885;55.848;35.916;2023-01-04T06:33:49;4.05;;;3.17;;
76939;SDS011;65885;55.848;35.916;2023-01-04T06:36:16;5.93;;;3.72;;
76939;SDS011;65885;55.848;35.916;2023-01-04T06:38:45;4.15;;;2.92;;
76939;SDS011;65885;55.848;35.916;2023-01-04T06:41:12;7.40;;;3.63;;
76939;SDS011;65885;55.848;35.916;2023-01-04T06:43:40;5.43;;;3.55;;
76939;SDS011;65885;55.848;35.916;2023-01-04T06:46:07;5.43;;;2.72;;
76939;SDS011;65885;55.848;35.916;2023-01-04T06:48:35;4.68;;;2.92;;
76939;SDS011;65885;55.848;35.916;2023-01-04T06:51:02;6.32;;;3.50;;
76939;SDS011;65885;55.848;35.916;2023-01-04T06:53:30;5.80;;;2.88;;
76939;SDS011;65885;55.848;35.916;2023-01-04T06:55:59;5.10;;;2.90;;
76939;SDS011;65885;55.848;35.916;2023-01-04T06:58:26;5.55;;;2.40;;
76939;SDS011;65885;55.848;35.916;2023-01-04T07:00:54;5.70;;;2.70;;
76939;SDS011;65885;55.848;35.916;2023-01-04T07:03:22;4.63;;;3.40;;
76939;SDS011;65885;55.848;35.916;2023-01-04T07:05:49;5.70;;;3.03;;
76939;SDS011;65885;55.848;35.916;2023-01-04T07:08:17;4.72;;;2.60;;
76939;SDS011;65885;55.848;35.916;2023-01-04T07:10:45;6.00;;;3.80;;
76939;SDS011;65885;55.848;35.916;2023-01-04T07:13:14;5.22;;;2.28;;
76939;SDS011;65885;55.848;35.916;2023-01-04T07:15:41;4.63;;;2.13;;
76939;SDS011;65885;55.848;35.916;2023-01-04T07:18:09;2.88;;;2.30;;
76939;SDS011;65885;55.848;35.916;2023-01-04T07:20:36;2.38;;;2.00;;
76939;SDS011;65885;55.848;35.916;2023-01-04T07:23:04;2.60;;;1.50;;
76939;SDS011;65885;55.848;35.916;2023-01-04T07:25:32;1.02;;;0.98;;
76939;SDS011;65885;55.848;35.916;2023-01-04T07:28:00;1.83;;;1.30;;
76939;SDS011;65885;55.848;35.916;2023-01-04T07:30:29;2.38;;;1.30;;
76939;SDS011;65885;55.848;35.916;2023-01-04T07:32:57;1.10;;;0.93;;
76939;SDS011;65885;55.848;35.916;2023-01-04T07:35:24;2.25;;;1.30;;
76939;SDS011;65885;55.848;35.916;2023-01-04T07:37:51;2.47;;;1.42;;
76939;SDS011;65885;55.848;35.916;2023-01-04T07:40:19;1.90;;;1.45;;
76939;SDS011;65885;55.848;35.916;2023-01-04T07:42:53;1.17;;;1.02;;
76939;SDS011;65885;55.848;35.916;2023-01-04T07:45:22;1.55;;;1.25;;
76939;SDS011;65885;55.848;35.916;2023-01-04T07:47:51;1.30;;;1.20;;
76939;SDS011;65885;55.848;35.916;2023-01-04T07:50:19;2.08;;;0.77;;
76939;SDS011;65885;55.848;35.916;2023-01-04T07:52:46;1.98;;;1.10;;
76939;SDS011;65885;55.848;35.916;2023-01-04T07:55:13;0.77;;;0.77;;
76939;SDS011;65885;55.848;35.916;2023-01-04T07:57:41;1.20;;;1.10;;
76939;SDS011;65885;55.848;35.916;2023-01-04T08:00:09;1.05;;;0.73;;
76939;SDS011;65885;55.848;35.916;2023-01-04T08:02:37;1.15;;;0.70;;
76939;SDS011;65885;55.848;35.916;2023-01-04T08:05:07;1.35;;;0.70;;
76939;SDS011;65885;55.848;35.916;2023-01-04T08:07:34;1.63;;;1.52;;
76939;SDS011;65885;55.848;35.916;2023-01-04T08:10:02;1.75;;;1.42;;
76939;SDS011;65885;55.848;35.916;2023-01-04T08:12:30;1.20;;;0.82;;
76939;SDS011;65885;55.848;35.916;2023-01-04T08:14:57;1.40;;;1.30;;
76939;SDS011;65885;55.848;35.916;2023-01-04T08:17:25;1.58;;;0.70;;
76939;SDS011;65885;55.848;35.916;2023-01-04T08:19:52;1.42;;;1.00;;
76939;SDS011;65885;55.848;35.916;2023-01-04T08:22:21;0.40;;;0.40;;
76939;SDS011;65885;55.848;35.916;2023-01-04T08:24:49;0.93;;;0.52;;
76939;SDS011;65885;55.848;35.916;2023-01-04T08:27:16;1.35;;;0.70;;
76939;SDS011;65885;55.848;35.916;2023-01-04T08:29:44;1.67;;;1.10;;
76939;SDS011;65885;55.848;35.916;2023-01-04T08:32:11;0.80;;;0.80;;
76939;SDS011;65885;55.848;35.916;2023-01-04T08:34:38;1.20;;;1.10;;
76939;SDS011;65885;55.848;35.916;2023-01-04T08:37:06;1.73;;;1.13;;
76939;SDS011;65885;55.848;35.916;2023-01-04T08:39:35;1.63;;;1.10;;
76939;SDS011;65885;55.848;35.916;2023-01-04T08:42:03;1.20;;;1.10;;
76939;SDS011;65885;55.848;35.916;2023-01-04T08:44:31;1.05;;;0.60;;
76939;SDS011;65885;55.848;35.916;2023-01-04T08:46:59;1.15;;;0.80;;
76939;SDS011;65885;55.848;35.916;2023-01-04T08:49:27;1.20;;;1.10;;
76939;SDS011;65885;55.848;35.916;2023-01-04T08:51:54;2.72;;;1.40;;
76939;SDS011;65885;55.848;35.916;2023-01-04T08:54:22;0.85;;;0.57;;
76939;SDS011;65885;55.848;35.916;2023-01-04T08:56:50;1.67;;;0.88;;
76939;SDS011;65885;55.848;35.916;2023-01-04T08:59:18;1.20;;;0.82;;
76939;SDS011;65885;55.848;35.916;2023-01-04T09:01:45;0.70;;;0.70;;
76939;SDS011;65885;55.848;35.916;2023-01-04T09:04:13;1.33;;;1.20;;
76939;SDS011;65885;55.848;35.916;2023-01-04T09:06:41;0.80;;;0.80;;
76939;SDS011;65885;55.848;35.916;2023-01-04T09:09:08;1.00;;;0.73;;
76939;SDS011;65885;55.848;35.916;2023-01-04T09:11:36;1.00;;;0.70;;
76939;SDS011;65885;55.848;35.916;2023-01-04T09:14:06;1.42;;;1.25;;
76939;SDS011;65885;55.848;35.916;2023-01-04T09:16:36;1.33;;;1.05;;
76939;SDS011;65885;55.848;35.916;2023-01-04T09:19:05;1.75;;;1.30;;
76939;SDS011;65885;55.848;35.916;2023-01-04T09:21:35;1.52;;;1.33;;
76939;SDS011;65885;55.848;35.916;2023-01-04T09:24:02;2.03;;;1.83;;
76939;SDS011;65885;55.848;35.916;2023-01-04T09:26:30;2.65;;;1.02;;
76939;SDS011;65885;55.848;35.916;2023-01-04T09:28:57;1.48;;;1.38;;
76939;SDS011;65885;55.848;35.916;2023-01-04T09:31:26;2.00;;;1.20;;
76939;SDS011;65885;55.848;35.916;2023-01-04T09:33:55;1.98;;;1.13;;
76939;SDS011;65885;55.848;35.916;2023-01-04T09:36:23;1.98;;;1.40;;
76939;SDS011;65885;55.848;35.916;2023-01-04T09:38:51;2.00;;;0.82;;
76939;SDS011;65885;55.848;35.916;2023-01-04T09:41:20;3.47;;;1.42;;
76939;SDS011;65885;55.848;35.916;2023-01-04T09:43:51;1.83;;;1.63;;
76939;SDS011;65885;55.848;35.916;2023-01-04T09:46:26;2.20;;;1.08;;
76939;SDS011;65885;55.848;35.916;2023-01-04T09:49:03;1.38;;;1.00;;
76939;SDS011;65885;55.848;35.916;2023-01-04T09:51:40;1.98;;;1.77;;
76939;SDS011;65885;55.848;35.916;2023-01-04T09:54:11;1.33;;;1.08;;
76939;SDS011;65885;55.848;35.916;2023-01-04T09:59:14;2.13;;;0.90;;
76939;SDS011;65885;55.848;35.916;2023-01-04T10:01:51;1.92;;;1.73;;
76939;SDS011;65885;55.848;35.916;2023-01-04T10:04:22;2.25;;;1.00;;
76939;SDS011;65885;55.848;35.916;2023-01-04T10:06:52;2.80;;;1.80;;
76939;SDS011;65885;55.848;35.916;2023-01-04T10:09:20;2.42;;;1.50;;
76939;SDS011;65885;55.848;35.916;2023-01-04T10:11:52;2.47;;;1.30;;
76939;SDS011;65885;55.848;35.916;2023-01-04T10:14:34;1.58;;;1.40;;
76939;SDS011;65885;55.848;35.916;2023-01-04T10:17:17;1.88;;;1.38;;
76939;SDS011;65885;55.848;35.916;2023-01-04T10:23:04;3.15;;;1.50;;
76939;SDS011;65885;55.848;35.916;2023-01-04T10:25:41;2.38;;;1.00;;
76939;SDS011;65885;55.848;35.916;2023-01-04T10:28:21;3.70;;;0.90;;
76939;SDS011;65885;55.848;35.916;2023-01-04T10:31:02;2.75;;;1.52;;
76939;SDS011;65885;55.848;35.916;2023-01-04T10:33:39;2.58;;;1.88;;
76939;SDS011;65885;55.848;35.916;2023-01-04T10:36:16;2.63;;;1.67;;
76939;SDS011;65885;55.848;35.916;2023-01-04T10:38:45;2.03;;;1.40;;
76939;SDS011;65885;55.848;35.916;2023-01-04T10:41:18;2.88;;;1.35;;
76939;SDS011;65885;55.848;35.916;2023-01-04T10:43:54;5.00;;;1.35;;
76939;SDS011;65885;55.848;35.916;2023-01-04T10:46:29;2.90;;;1.15;;
76939;SDS011;65885;55.848;35.916;2023-01-04T10:49:05;3.72;;;1.50;;
76939;SDS011;65885;55.848;35.916;2023-01-04T10:51:39;2.78;;;1.70;;
76939;SDS011;65885;55.848;35.916;2023-01-04T10:54:12;3.42;;;1.67;;
76939;SDS011;65885;55.848;35.916;2023-01-04T10:56:48;3.47;;;2.38;;
76939;SDS011;65885;55.848;35.916;2023-01-04T10:59:21;3.35;;;1.52;;
76939;SDS011;65885;55.848;35.916;2023-01-04T11:01:55;5.43;;;2.55;;
76939;SDS011;65885;55.848;35.916;2023-01-04T11:04:31;4.50;;;2.35;;
76939;SDS011;65885;55.848;35.916;2023-01-04T11:07:05;4.18;;;1.75;;
76939;SDS011;65885;55.848;35.916;2023-01-04T11:09:38;4.93;;;2.30;;
76939;SDS011;65885;55.848;35.916;2023-01-04T11:12:13;5.03;;;1.80;;
76939;SDS011;65885;55.848;35.916;2023-01-04T11:14:43;5.43;;;2.60;;
76939;SDS011;65885;55.848;35.916;2023-01-04T11:17:11;3.63;;;2.45;;
76939;SDS011;65885;55.848;35.916;2023-01-04T11:19:40;5.18;;;2.35;;
76939;SDS011;65885;55.848;35.916;2023-01-04T11:22:10;6.88;;;2.50;;
76939;SDS011;65885;55.848;35.916;2023-01-04T11:24:41;8.73;;;3.78;;
76939;SDS011;65885;55.848;35.916;2023-01-04T11:27:12;8.23;;;3.83;;
76939;SDS011;65885;55.848;35.916;2023-01-04T11:29:44;7.65;;;2.90;;
76939;SDS011;65885;55.848;35.916;2023-01-04T11:32:18;7.55;;;3.22;;
76939;SDS011;65885;55.848;35.916;2023-01-04T11:34:55;8.65;;;3.35;;
76939;SDS011;65885;55.848;35.916;2023-01-04T11:37:23;7.40;;;3.40;;
76939;SDS011;65885;55.848;35.916;2023-01-04T11:40:08;5.65;;;3.20;;
76939;SDS011;65885;55.848;35.916;2023-01-04T11:42:45;5.18;;;2.38;;
76939;SDS011;65885;55.848;35.916;2023-01-04T11:45:19;5.72;;;2.25;;
76939;SDS011;65885;55.848;35.916;2023-01-04T11:47:50;4.18;;;2.00;;
76939;SDS011;65885;55.848;35.916;2023-01-04T11:50:40;4.63;;;2.15;;
76939;SDS011;65885;55.848;35.916;2023-01-04T11:53:21;4.22;;;1.77;;
76939;SDS011;65885;55.848;35.916;2023-01-04T11:56:06;2.75;;;2.10;;
76939;SDS011;65885;55.848;35.916;2023-01-04T11:58:35;3.95;;;1.20;;
76939;SDS011;65885;55.848;35.916;2023-01-04T12:01:03;2.33;;;1.42;;
76939;SDS011;65885;55.848;35.916;2023-01-04T12:03:32;3.35;;;1.67;;
76939;SDS011;65885;55.848;35.916;2023-01-04T12:06:06;2.20;;;1.33;;
76939;SDS011;65885;55.848;35.916;2023-01-04T12:08:39;2.55;;;1.88;;
76939;SDS011;65885;55.848;35.916;2023-01-04T12:11:10;1.20;;;1.10;;
76939;SDS011;65885;55.848;35.916;2023-01-04T12:13:45;2.10;;;1.27;;
76939;SDS011;65885;55.848;35.916;2023-01-04T12:16:16;1.52;;;1.42;;
76939;SDS011;65885;55.848;35.916;2023-01-04T12:18:51;2.15;;;1.30;;
76939;SDS011;65885;55.848;35.916;2023-01-04T12:21:21;2.22;;;1.20;;
76939;SDS011;65885;55.848;35.916;2023-01-04T12:23:49;1.88;;;1.63;;
76939;SDS011;65885;55.848;35.916;2023-01-04T12:26:18;2.13;;;1.60;;
76939;SDS011;65885;55.848;35.916;2023-01-04T12:28:48;3.08;;;1.15;;
76939;SDS011;65885;55.848;35.916;2023-01-04T12:31:29;1.92;;;1.20;;
76939;SDS011;65885;55.848;35.916;2023-01-04T12:37:04;2.03;;;1.45;;
76939;SDS011;65885;55.848;35.916;2023-01-04T12:39:36;2.08;;;1.55;;
76939;SDS011;65885;55.848;35.916;2023-01-04T12:42:12;1.63;;;1.42;;
76939;SDS011;65885;55.848;35.916;2023-01-04T12:44:56;1.52;;;1.38;;
76939;SDS011;65885;55.848;35.916;2023-01-04T12:47:43;4.68;;;1.70;;
76939;SDS011;65885;55.848;35.916;2023-01-04T12:50:28;2.75;;;2.08;;
76939;SDS011;65885;55.848;35.916;2023-01-04T12:53:07;2.95;;;1.80;;
76939;SDS011;65885;55.848;35.916;2023-01-04T12:56:12;3.38;;;2.35;;
76939;SDS011;65885;55.848;35.916;2023-01-04T13:01:36;3.10;;;2.50;;
76939;SDS011;65885;55.848;35.916;2023-01-04T13:06:53;2.78;;;2.05;;
76939;SDS011;65885;55.848;35.916;2023-01-04T13:09:24;2.20;;;1.48;;
76939;SDS011;65885;55.848;35.916;2023-01-04T13:12:04;3.47;;;1.58;;
76939;SDS011;65885;55.848;35.916;2023-01-04T13:14:39;4.13;;;2.17;;
76939;SDS011;65885;55.848;35.916;2023-01-04T13:17:13;3.75;;;1.27;;
76939;SDS011;65885;55.848;35.916;2023-01-04T13:19:43;2.47;;;1.33;;
76939;SDS011;65885;55.848;35.916;2023-01-04T13:22:21;2.15;;;1.58;;
76939;SDS011;65885;55.848;35.916;2023-01-04T13:24:54;1.40;;;1.27;;
76939;SDS011;65885;55.848;35.916;2023-01-04T13:27:23;2.30;;;1.08;;
76939;SDS011;65885;55.848;35.916;2023-01-04T13:29:51;5.18;;;3.17;;
76939;SDS011;65885;55.848;35.916;2023-01-04T13:32:22;3.55;;;1.73;;
76939;SDS011;65885;55.848;35.916;2023-01-04T13:34:51;2.72;;;1.50;;
76939;SDS011;65885;55.848;35.916;2023-01-04T13:37:27;1.60;;;1.50;;
76939;SDS011;65885;55.848;35.916;2023-01-04T13:42:55;3.33;;;1.50;;
76939;SDS011;65885;55.848;35.916;2023-01-04T13:48:13;1.25;;;0.90;;
76939;SDS011;65885;55.848;35.916;2023-01-04T13:50:44;2.05;;;1.80;;
76939;SDS011;65885;55.848;35.916;2023-01-04T13:53:24;1.00;;;0.82;;
76939;SDS011;65885;55.848;35.916;2023-01-04T13:55:54;2.05;;;1.40;;
76939;SDS011;65885;55.848;35.916;2023-01-04T13:58:24;2.08;;;0.80;;
76939;SDS011;65885;55.848;35.916;2023-01-04T14:00:52;1.52;;;0.95;;
76939;SDS011;65885;55.848;35.916;2023-01-04T14:03:25;1.63;;;1.20;;
76939;SDS011;65885;55.848;35.916;2023-01-04T14:05:59;1.70;;;1.60;;
76939;SDS011;65885;55.848;35.916;2023-01-04T14:08:41;3.20;;;0.90;;
76939;SDS011;65885;55.848;35.916;2023-01-04T14:11:16;1.83;;;0.95;;
76939;SDS011;65885;55.848;35.916;2023-01-04T14:14:00;3.25;;;1.20;;
76939;SDS011;65885;55.848;35.916;2023-01-04T14:16:28;1.45;;;0.90;;
76939;SDS011;65885;55.848;35.916;2023-01-04T14:18:55;0.93;;;0.85;;
76939;SDS011;65885;55.848;35.916;2023-01-04T14:21:32;2.33;;;1.17;;
76939;SDS011;65885;55.848;35.916;2023-01-04T14:24:02;1.05;;;0.65;;
76939;SDS011;65885;55.848;35.916;2023-01-04T14:26:31;2.28;;;0.90;;
76939;SDS011;65885;55.848;35.916;2023-01-04T14:31:49;1.85;;;1.20;;
76939;SDS011;65885;55.848;35.916;2023-01-04T14:34:19;2.25;;;1.20;;
76939;SDS011;65885;55.848;35.916;2023-01-04T14:36:49;1.35;;;1.27;;
76939;SDS011;65885;55.848;35.916;2023-01-04T14:39:32;1.63;;;1.27;;
76939;SDS011;65885;55.848;35.916;2023-01-04T14:42:02;2.25;;;1.00;;
76939;SDS011;65885;55.848;35.916;2023-01-04T14:44:30;1.80;;;1.70;;
76939;SDS011;65885;55.848;35.916;2023-01-04T14:47:00;2.60;;;1.30;;
76939;SDS011;65885;55.848;35.916;2023-01-04T14:49:30;1.75;;;1.02;;
76939;SDS011;65885;55.848;35.916;2023-01-04T14:51:59;1.65;;;1.08;;
76939;SDS011;65885;55.848;35.916;2023-01-04T14:54:28;2.10;;;1.23;;
76939;SDS011;65885;55.848;35.916;2023-01-04T14:56:56;4.55;;;1.80;;
76939;SDS011;65885;55.848;35.916;2023-01-04T14:59:25;1.77;;;1.42;;
76939;SDS011;65885;55.848;35.916;2023-01-04T15:01:53;3.15;;;1.90;;
76939;SDS011;65885;55.848;35.916;2023-01-04T15:04:22;1.80;;;1.33;;
76939;SDS011;65885;55.848;35.916;2023-01-04T15:06:51;1.80;;;1.40;;
76939;SDS011;65885;55.848;35.916;2023-01-04T15:09:19;3.90;;;1.95;;
76939;SDS011;65885;55.848;35.916;2023-01-04T15:11:47;1.38;;;1.27;;
76939;SDS011;65885;55.848;35.916;2023-01-04T15:14:14;1.92;;;1.10;;
76939;SDS011;65885;55.848;35.916;2023-01-04T15:16:43;3.10;;;1.73;;
76939;SDS011;65885;55.848;35.916;2023-01-04T15:19:11;2.97;;;2.28;;
76939;SDS011;65885;55.848;35.916;2023-01-04T15:21:38;2.35;;;1.70;;
76939;SDS011;65885;55.848;35.916;2023-01-04T15:24:06;2.28;;;1.50;;
76939;SDS011;65885;55.848;35.916;2023-01-04T15:26:34;4.22;;;1.73;;
76939;SDS011;65885;55.848;35.916;2023-01-04T15:29:01;3.17;;;2.20;;
76939;SDS011;65885;55.848;35.916;2023-01-04T15:31:30;4.22;;;1.58;;
76939;SDS011;65885;55.848;35.916;2023-01-04T15:33:59;2.38;;;2.00;;